createdAt,value
2022-09-28T00:01:21.102Z,7.32
2022-09-28T00:06:25.271Z,8.32
2022-09-28T00:11:28.315Z,5.05
2022-09-28T00:16:33.991Z,5.90
2022-09-28T00:21:38.167Z,11.23
2022-09-28T00:26:49.710Z,8.63
2022-09-28T00:31:57.332Z,13.60
2022-09-28T00:37:00.852Z,7.63
2022-09-28T00:42:04.116Z,8.10
2022-09-28T00:47:24.645Z,7.20
2022-09-28T00:52:39.719Z,4.93
2022-09-28T00:57:45.154Z,5.40
2022-09-28T01:02:47.843Z,5.22
2022-09-28T01:07:50.821Z,5.20
2022-09-28T01:12:55.476Z,6.38
2022-09-28T01:18:31.592Z,6.47
2022-09-28T01:23:38.961Z,6.73
2022-09-28T01:28:44.138Z,8.02
2022-09-28T01:33:53.013Z,13.82
2022-09-28T01:38:56.523Z,13.25
2022-09-28T01:44:03.134Z,15.48
2022-09-28T01:49:09.584Z,13.45
2022-09-28T01:54:20.403Z,10.45
2022-09-28T01:59:29.749Z,8.53
2022-09-28T02:05:18.649Z,6.93
2022-09-28T02:10:25.071Z,13.50
2022-09-28T02:15:34.963Z,33.08
2022-09-28T02:20:39.133Z,29.75
2022-09-28T02:25:47.471Z,22.48
2022-09-28T02:30:50.544Z,21.20
2022-09-28T02:35:54.197Z,22.08
2022-09-28T02:41:17.573Z,10.65
2022-09-28T02:46:34.990Z,4.90
2022-09-28T02:52:14.319Z,11.55
2022-09-28T02:57:39.554Z,15.45
2022-09-28T03:02:43.410Z,8.98
2022-09-28T03:07:57.489Z,10.02
2022-09-28T03:18:02.440Z,6.35
2022-09-28T03:23:24.855Z,7.20
2022-09-28T03:28:28.256Z,7.60
2022-09-28T03:33:31.130Z,7.63
2022-09-28T03:38:33.569Z,8.27
2022-09-28T03:43:36.322Z,6.93
2022-09-28T03:48:40.108Z,6.78
2022-09-28T03:53:45.342Z,4.80
2022-09-28T03:58:48.259Z,5.88
2022-09-28T04:03:57.545Z,5.53
2022-09-28T04:09:00.354Z,7.60
2022-09-28T04:14:02.866Z,6.78
2022-09-28T04:19:06.422Z,6.97
2022-09-28T04:24:23.110Z,6.28
2022-09-28T04:29:28.176Z,4.32
2022-09-28T04:34:37.206Z,5.32
2022-09-28T04:39:44.040Z,5.50
2022-09-28T04:44:48.948Z,5.32
2022-09-28T04:49:54.962Z,6.15
2022-09-28T04:55:12.254Z,6.32
2022-09-28T05:00:14.934Z,6.82
2022-09-28T05:05:27.671Z,5.53
2022-09-28T05:10:48.736Z,6.65
2022-09-28T05:15:57.445Z,9.85
2022-09-28T05:21:01.776Z,8.25
2022-09-28T05:26:04.417Z,9.75
2022-09-28T05:31:06.754Z,15.18
2022-09-28T05:36:39.360Z,16.42
2022-09-28T05:46:44.562Z,16.50
2022-09-28T05:51:48.172Z,16.50
2022-09-28T05:56:51.687Z,16.17
2022-09-28T06:01:53.877Z,15.05
2022-09-28T06:06:57.293Z,18.47
2022-09-28T06:11:59.854Z,15.20
2022-09-28T06:17:13.477Z,14.30
2022-09-28T06:22:16.145Z,15.48
2022-09-28T06:27:28.415Z,15.13
2022-09-28T06:32:30.886Z,11.32
2022-09-28T06:37:33.500Z,12.07
2022-09-28T06:42:37.657Z,11.13
2022-09-28T06:48:04.580Z,10.45
2022-09-28T06:53:14.003Z,13.15
2022-09-28T06:58:45.201Z,11.98
2022-09-28T07:03:47.594Z,14.48
2022-09-28T07:09:26.203Z,11.80
2022-09-28T07:14:50.568Z,8.73
2022-09-28T07:19:53.254Z,8.70
2022-09-28T07:24:55.584Z,11.43
2022-09-28T07:30:16.371Z,11.35
2022-09-28T07:35:35.511Z,11.50
2022-09-28T07:40:57.429Z,11.60
2022-09-28T07:46:12.323Z,10.18
2022-09-28T07:51:21.351Z,9.57
2022-09-28T07:56:37.484Z,11.75
2022-09-28T08:01:52.580Z,10.48
2022-09-28T08:11:59.738Z,7.47
2022-09-28T08:17:17.587Z,8.32
2022-09-28T08:22:24.662Z,6.03
2022-09-28T08:27:29.767Z,4.65
2022-09-28T08:32:32.986Z,4.47
2022-09-28T08:37:55.601Z,4.32
2022-09-28T08:43:59.618Z,4.88
2022-09-28T08:49:25.485Z,5.78
2022-09-28T08:54:56.388Z,4.63
2022-09-28T09:00:31.076Z,4.43
2022-09-28T09:05:46.661Z,4.97
2022-09-28T09:11:16.331Z,4.65
2022-09-28T09:16:38.223Z,3.85
2022-09-28T09:22:17.514Z,4.07
2022-09-28T09:27:51.257Z,4.07
2022-09-28T09:33:02.649Z,4.55
2022-09-28T09:38:29.235Z,3.78
2022-09-28T09:44:38.856Z,3.72
2022-09-28T09:50:15.159Z,3.40
2022-09-28T09:55:30.037Z,5.10
2022-09-28T10:00:54.675Z,3.47
2022-09-28T10:06:27.536Z,3.03
2022-09-28T10:11:43.029Z,3.20
2022-09-28T10:16:49.968Z,3.90
2022-09-28T10:22:14.295Z,3.60
2022-09-28T10:27:36.449Z,4.25
2022-09-28T10:32:40.866Z,3.17
2022-09-28T10:37:57.201Z,5.55
2022-09-28T10:43:24.065Z,3.97
2022-09-28T10:48:33.083Z,5.47
2022-09-28T10:53:38.881Z,4.75
2022-09-28T10:59:23.227Z,4.72
2022-09-28T11:04:30.871Z,7.20
2022-09-28T11:09:40.451Z,4.63
2022-09-28T11:14:44.824Z,38.42
2022-09-28T11:19:55.162Z,45.50
2022-09-28T11:25:13.136Z,49.20
2022-09-28T11:30:28.536Z,18.65
2022-09-28T11:36:00.355Z,8.70
2022-09-28T11:41:21.796Z,9.02
2022-09-28T11:46:50.705Z,14.23
2022-09-28T11:51:55.755Z,19.38
2022-09-28T11:57:00.188Z,8.63
2022-09-28T12:02:26.107Z,12.80
2022-09-28T12:07:44.927Z,5.47
2022-09-28T12:13:14.099Z,8.05
2022-09-28T12:18:23.363Z,4.47
2022-09-28T12:23:30.971Z,5.10
2022-09-28T12:28:45.467Z,3.75
2022-09-28T12:33:49.787Z,3.63
2022-09-28T12:39:53.618Z,5.05
2022-09-28T12:45:02.440Z,5.65
2022-09-28T12:55:57.505Z,2.60
2022-09-28T13:01:47.304Z,6.32
2022-09-28T13:06:57.574Z,6.60
2022-09-28T13:12:09.023Z,6.05
2022-09-28T13:17:26.519Z,6.32
2022-09-28T13:23:06.373Z,26.38
2022-09-28T13:28:19.002Z,12.23
2022-09-28T13:33:30.599Z,10.02
2022-09-28T13:38:52.443Z,13.75
2022-09-28T13:44:21.095Z,17.52
2022-09-28T13:49:48.503Z,12.82
2022-09-28T13:55:01.459Z,16.10
2022-09-28T14:00:11.747Z,19.23
2022-09-28T14:05:23.178Z,19.52
2022-09-28T14:10:44.048Z,21.42
2022-09-28T14:15:46.760Z,31.90
2022-09-28T14:21:26.842Z,21.10
2022-09-28T14:26:58.067Z,15.65
2022-09-28T14:32:06.071Z,11.73
2022-09-28T14:37:44.041Z,43.42
2022-09-28T14:43:25.915Z,26.63
2022-09-28T14:48:48.138Z,89.00
2022-09-28T14:53:51.380Z,44.90
2022-09-28T15:04:03.249Z,60.75
2022-09-28T15:09:27.239Z,41.92
2022-09-28T15:14:33.131Z,76.30
2022-09-28T15:19:44.345Z,28.13
2022-09-28T15:25:13.485Z,22.08
2022-09-28T15:30:29.309Z,14.13
2022-09-28T15:35:31.656Z,22.30
2022-09-28T15:40:35.780Z,34.20
2022-09-28T15:45:40.096Z,18.08
2022-09-28T15:50:57.269Z,26.20
2022-09-28T15:56:09.616Z,19.15
2022-09-28T16:01:36.360Z,26.27
2022-09-28T16:06:41.050Z,13.93
2022-09-28T16:11:43.322Z,23.98
2022-09-28T16:16:47.877Z,27.60
2022-09-28T16:21:52.664Z,26.30
2022-09-28T16:26:57.458Z,22.63
2022-09-28T16:32:25.536Z,89.20
2022-09-28T16:37:32.046Z,95.60
2022-09-28T16:42:34.969Z,73.30
2022-09-28T16:47:37.338Z,182.43
2022-09-28T16:53:00.024Z,72.43
2022-09-28T16:58:04.843Z,36.60
2022-09-28T17:03:15.361Z,48.95
2022-09-28T17:08:20.058Z,37.15
2022-09-28T17:13:29.965Z,24.08
2022-09-28T17:18:32.614Z,18.40
2022-09-28T17:23:35.133Z,25.45
2022-09-28T17:28:37.582Z,23.73
2022-09-28T17:33:39.950Z,85.82
2022-09-28T17:38:43.126Z,110.57
2022-09-28T17:43:46.136Z,290.48
2022-09-28T17:48:49.227Z,521.40
2022-09-28T17:53:51.687Z,535.45
2022-09-28T17:58:54.460Z,357.77
2022-09-28T18:03:56.823Z,201.90
2022-09-28T18:08:59.316Z,236.57
2022-09-28T18:14:01.645Z,342.42
2022-09-28T18:19:04.184Z,101.45
2022-09-28T18:24:06.712Z,60.55
2022-09-28T18:29:09.024Z,59.75
2022-09-28T18:34:12.338Z,63.03
2022-09-28T18:39:14.824Z,82.90
2022-09-28T18:44:17.171Z,73.63
2022-09-28T18:49:23.044Z,75.78
2022-09-28T18:54:27.285Z,46.90
2022-09-28T18:59:30.326Z,26.33
2022-09-28T19:04:32.761Z,18.02
2022-09-28T19:09:35.360Z,17.83
2022-09-28T19:14:37.613Z,25.92
2022-09-28T19:19:41.745Z,31.83
2022-09-28T19:24:44.032Z,27.70
2022-09-28T19:29:46.391Z,40.90
2022-09-28T19:34:48.924Z,32.20
2022-09-28T19:39:51.210Z,29.73
2022-09-28T19:44:53.741Z,43.33
2022-09-28T19:49:56.016Z,40.45
2022-09-28T19:54:58.254Z,29.52
2022-09-28T20:00:03.410Z,18.52
2022-09-28T20:05:11.279Z,21.48
2022-09-28T20:10:13.527Z,17.83
2022-09-28T20:15:16.706Z,21.80
2022-09-28T20:20:19.276Z,16.85
2022-09-28T20:25:21.555Z,29.38
2022-09-28T20:30:24.417Z,25.70
2022-09-28T20:35:33.111Z,30.43
2022-09-28T20:40:37.987Z,31.85
2022-09-28T20:45:40.226Z,30.35
2022-09-28T20:50:42.774Z,17.52
2022-09-28T20:55:45.085Z,15.27
2022-09-28T21:00:48.072Z,11.95
2022-09-28T21:16:02.055Z,7.60
2022-09-28T21:21:07.856Z,10.00
2022-09-28T21:26:15.930Z,12.25
2022-09-28T21:31:18.269Z,17.15
2022-09-28T21:36:21.049Z,26.03
2022-09-28T21:41:25.060Z,25.10
2022-09-28T21:51:38.180Z,23.25
2022-09-28T21:56:41.513Z,19.77
2022-09-28T22:01:44.440Z,45.85
2022-09-28T22:06:48.024Z,37.90
2022-09-28T22:11:51.295Z,28.75
2022-09-28T22:16:53.506Z,15.95
2022-09-28T22:21:55.795Z,16.98
2022-09-28T22:26:58.103Z,13.60
2022-09-28T22:32:02.299Z,11.40
2022-09-28T22:37:04.569Z,10.65
2022-09-28T22:42:08.424Z,15.75
2022-09-28T22:47:13.944Z,13.43
2022-09-28T22:52:16.256Z,12.65
2022-09-28T22:57:18.679Z,14.13
2022-09-28T23:02:20.991Z,14.07
2022-09-28T23:07:23.743Z,14.10
2022-09-28T23:12:27.922Z,15.07
2022-09-28T23:17:30.149Z,16.15
2022-09-28T23:22:33.835Z,14.32
2022-09-28T23:32:38.434Z,14.07
2022-09-28T23:37:40.676Z,12.07
2022-09-28T23:42:42.853Z,13.45
2022-09-28T23:47:45.387Z,15.38
2022-09-28T23:52:48.298Z,14.73
2022-09-28T23:57:50.885Z,11.02
